sensor_id;sensor_type;location;lat;lon;timestamp;P1;durP1;ratioP1;P2;durP2;ratioP2
43114;SDS011;28727;50.068;14.452;2023-07-30T00:00:21;712.03;;;649.85;;
43114;SDS011;28727;50.068;14.452;2023-07-30T00:02:53;718.33;;;655.95;;
43114;SDS011;28727;50.068;14.452;2023-07-30T00:05:25;709.40;;;647.88;;
43114;SDS011;28727;50.068;14.452;2023-07-30T00:07:57;710.88;;;649.05;;
43114;SDS011;28727;50.068;14.452;2023-07-30T00:10:31;710.50;;;648.85;;
43114;SDS011;28727;50.068;14.452;2023-07-30T00:13:03;711.13;;;649.08;;
43114;SDS011;28727;50.068;14.452;2023-07-30T00:15:35;711.63;;;649.50;;
43114;SDS011;28727;50.068;14.452;2023-07-30T00:18:13;709.85;;;648.30;;
43114;SDS011;28727;50.068;14.452;2023-07-30T00:20:45;706.17;;;644.60;;
43114;SDS011;28727;50.068;14.452;2023-07-30T00:23:18;709.38;;;647.60;;
43114;SDS011;28727;50.068;14.452;2023-07-30T00:25:50;707.55;;;645.92;;
43114;SDS011;28727;50.068;14.452;2023-07-30T00:28:22;709.53;;;647.65;;
43114;SDS011;28727;50.068;14.452;2023-07-30T00:30:54;706.65;;;645.17;;
43114;SDS011;28727;50.068;14.452;2023-07-30T00:33:25;713.10;;;651.00;;
43114;SDS011;28727;50.068;14.452;2023-07-30T00:35:57;706.53;;;644.88;;
43114;SDS011;28727;50.068;14.452;2023-07-30T00:38:29;706.47;;;644.80;;
43114;SDS011;28727;50.068;14.452;2023-07-30T00:41:01;705.72;;;644.33;;
43114;SDS011;28727;50.068;14.452;2023-07-30T00:43:33;713.22;;;651.08;;
43114;SDS011;28727;50.068;14.452;2023-07-30T00:46:05;703.42;;;642.00;;
43114;SDS011;28727;50.068;14.452;2023-07-30T00:48:37;706.85;;;645.03;;
43114;SDS011;28727;50.068;14.452;2023-07-30T00:51:09;708.58;;;646.55;;
43114;SDS011;28727;50.068;14.452;2023-07-30T00:53:49;707.88;;;645.75;;
43114;SDS011;28727;50.068;14.452;2023-07-30T00:56:22;703.65;;;642.22;;
43114;SDS011;28727;50.068;14.452;2023-07-30T00:58:54;705.88;;;644.30;;
43114;SDS011;28727;50.068;14.452;2023-07-30T01:01:26;699.35;;;638.10;;
43114;SDS011;28727;50.068;14.452;2023-07-30T01:04:01;707.85;;;645.90;;
43114;SDS011;28727;50.068;14.452;2023-07-30T01:06:33;708.30;;;646.50;;
43114;SDS011;28727;50.068;14.452;2023-07-30T01:09:05;704.80;;;643.03;;
43114;SDS011;28727;50.068;14.452;2023-07-30T01:11:37;703.47;;;642.17;;
43114;SDS011;28727;50.068;14.452;2023-07-30T01:14:10;704.60;;;643.17;;
43114;SDS011;28727;50.068;14.452;2023-07-30T01:16:45;710.42;;;648.80;;
43114;SDS011;28727;50.068;14.452;2023-07-30T01:19:17;703.38;;;641.92;;
43114;SDS011;28727;50.068;14.452;2023-07-30T01:21:49;703.50;;;642.08;;
43114;SDS011;28727;50.068;14.452;2023-07-30T01:24:22;707.35;;;645.70;;
43114;SDS011;28727;50.068;14.452;2023-07-30T01:26:55;704.10;;;642.55;;
43114;SDS011;28727;50.068;14.452;2023-07-30T01:32:07;699.33;;;638.33;;
43114;SDS011;28727;50.068;14.452;2023-07-30T01:34:45;697.80;;;636.75;;
43114;SDS011;28727;50.068;14.452;2023-07-30T01:37:20;705.25;;;643.85;;
43114;SDS011;28727;50.068;14.452;2023-07-30T01:39:52;699.90;;;638.90;;
43114;SDS011;28727;50.068;14.452;2023-07-30T01:42:31;693.50;;;632.78;;
43114;SDS011;28727;50.068;14.452;2023-07-30T01:45:07;704.45;;;642.90;;
43114;SDS011;28727;50.068;14.452;2023-07-30T01:47:39;701.35;;;640.13;;
43114;SDS011;28727;50.068;14.452;2023-07-30T01:50:11;702.58;;;641.38;;
43114;SDS011;28727;50.068;14.452;2023-07-30T01:52:46;702.75;;;641.22;;
43114;SDS011;28727;50.068;14.452;2023-07-30T01:55:19;694.35;;;633.47;;
43114;SDS011;28727;50.068;14.452;2023-07-30T01:57:51;693.03;;;632.25;;
43114;SDS011;28727;50.068;14.452;2023-07-30T02:00:23;697.78;;;636.67;;
43114;SDS011;28727;50.068;14.452;2023-07-30T02:02:55;697.55;;;636.30;;
43114;SDS011;28727;50.068;14.452;2023-07-30T02:05:27;692.92;;;631.80;;
43114;SDS011;28727;50.068;14.452;2023-07-30T02:07:59;699.58;;;638.00;;
43114;SDS011;28727;50.068;14.452;2023-07-30T02:10:31;690.83;;;629.92;;
43114;SDS011;28727;50.068;14.452;2023-07-30T02:13:03;697.70;;;636.40;;
43114;SDS011;28727;50.068;14.452;2023-07-30T02:15:41;691.67;;;630.47;;
43114;SDS011;28727;50.068;14.452;2023-07-30T02:18:16;691.60;;;630.63;;
43114;SDS011;28727;50.068;14.452;2023-07-30T02:20:48;692.10;;;630.95;;
43114;SDS011;28727;50.068;14.452;2023-07-30T02:23:20;691.90;;;630.60;;
43114;SDS011;28727;50.068;14.452;2023-07-30T02:25:54;690.25;;;629.20;;
43114;SDS011;28727;50.068;14.452;2023-07-30T02:28:27;698.25;;;636.97;;
43114;SDS011;28727;50.068;14.452;2023-07-30T02:30:58;695.42;;;634.13;;
43114;SDS011;28727;50.068;14.452;2023-07-30T02:33:30;696.15;;;634.92;;
43114;SDS011;28727;50.068;14.452;2023-07-30T02:36:03;693.83;;;632.67;;
43114;SDS011;28727;50.068;14.452;2023-07-30T02:38:37;695.50;;;634.15;;
43114;SDS011;28727;50.068;14.452;2023-07-30T02:41:09;691.60;;;630.83;;
43114;SDS011;28727;50.068;14.452;2023-07-30T02:43:42;695.63;;;634.40;;
43114;SDS011;28727;50.068;14.452;2023-07-30T02:46:17;699.25;;;637.90;;
43114;SDS011;28727;50.068;14.452;2023-07-30T02:48:49;690.70;;;629.58;;
43114;SDS011;28727;50.068;14.452;2023-07-30T02:51:21;707.40;;;645.67;;
43114;SDS011;28727;50.068;14.452;2023-07-30T02:53:52;702.80;;;641.15;;
43114;SDS011;28727;50.068;14.452;2023-07-30T02:56:35;697.22;;;636.03;;
43114;SDS011;28727;50.068;14.452;2023-07-30T02:59:07;694.00;;;632.80;;
43114;SDS011;28727;50.068;14.452;2023-07-30T03:01:39;690.20;;;629.20;;
43114;SDS011;28727;50.068;14.452;2023-07-30T03:04:11;690.28;;;629.33;;
43114;SDS011;28727;50.068;14.452;2023-07-30T03:06:43;685.60;;;624.72;;
43114;SDS011;28727;50.068;14.452;2023-07-30T03:09:15;688.33;;;626.80;;
43114;SDS011;28727;50.068;14.452;2023-07-30T03:11:47;179.77;;;163.90;;
43114;SDS011;28727;50.068;14.452;2023-07-30T03:14:19;168.38;;;153.18;;
43114;SDS011;28727;50.068;14.452;2023-07-30T03:16:52;171.88;;;156.35;;
43114;SDS011;28727;50.068;14.452;2023-07-30T03:19:23;187.27;;;170.07;;
43114;SDS011;28727;50.068;14.452;2023-07-30T03:21:57;170.70;;;154.65;;
43114;SDS011;28727;50.068;14.452;2023-07-30T03:24:32;175.07;;;159.13;;
43114;SDS011;28727;50.068;14.452;2023-07-30T03:27:08;171.60;;;155.93;;
43114;SDS011;28727;50.068;14.452;2023-07-30T03:29:39;179.05;;;162.98;;
43114;SDS011;28727;50.068;14.452;2023-07-30T03:32:17;169.65;;;154.23;;
43114;SDS011;28727;50.068;14.452;2023-07-30T03:34:48;172.32;;;156.63;;
43114;SDS011;28727;50.068;14.452;2023-07-30T03:37:20;174.05;;;158.35;;
43114;SDS011;28727;50.068;14.452;2023-07-30T03:39:53;171.82;;;156.10;;
43114;SDS011;28727;50.068;14.452;2023-07-30T03:42:25;169.63;;;154.23;;
43114;SDS011;28727;50.068;14.452;2023-07-30T03:44:57;177.82;;;161.45;;
43114;SDS011;28727;50.068;14.452;2023-07-30T03:47:29;168.05;;;152.90;;
43114;SDS011;28727;50.068;14.452;2023-07-30T03:50:02;188.63;;;171.25;;
43114;SDS011;28727;50.068;14.452;2023-07-30T03:52:33;173.40;;;157.52;;
43114;SDS011;28727;50.068;14.452;2023-07-30T03:55:08;172.38;;;156.68;;
43114;SDS011;28727;50.068;14.452;2023-07-30T03:57:43;183.23;;;166.20;;
43114;SDS011;28727;50.068;14.452;2023-07-30T04:00:16;173.23;;;157.15;;
43114;SDS011;28727;50.068;14.452;2023-07-30T04:02:48;170.75;;;155.25;;
43114;SDS011;28727;50.068;14.452;2023-07-30T04:05:20;181.27;;;164.93;;
43114;SDS011;28727;50.068;14.452;2023-07-30T04:07:52;177.07;;;161.00;;
43114;SDS011;28727;50.068;14.452;2023-07-30T04:10:24;170.85;;;155.20;;
43114;SDS011;28727;50.068;14.452;2023-07-30T04:12:55;177.88;;;161.70;;
43114;SDS011;28727;50.068;14.452;2023-07-30T04:15:30;169.95;;;154.32;;
43114;SDS011;28727;50.068;14.452;2023-07-30T04:18:02;176.55;;;160.23;;
43114;SDS011;28727;50.068;14.452;2023-07-30T04:20:34;176.93;;;160.55;;
43114;SDS011;28727;50.068;14.452;2023-07-30T04:23:06;170.95;;;155.18;;
43114;SDS011;28727;50.068;14.452;2023-07-30T04:25:38;173.43;;;157.57;;
43114;SDS011;28727;50.068;14.452;2023-07-30T04:28:10;169.50;;;154.02;;
43114;SDS011;28727;50.068;14.452;2023-07-30T04:30:42;167.32;;;152.30;;
43114;SDS011;28727;50.068;14.452;2023-07-30T04:33:17;162.90;;;148.20;;
43114;SDS011;28727;50.068;14.452;2023-07-30T04:35:52;163.55;;;148.65;;
43114;SDS011;28727;50.068;14.452;2023-07-30T04:38:25;167.13;;;151.80;;
43114;SDS011;28727;50.068;14.452;2023-07-30T04:40:57;168.52;;;153.00;;
43114;SDS011;28727;50.068;14.452;2023-07-30T04:43:30;161.40;;;146.93;;
43114;SDS011;28727;50.068;14.452;2023-07-30T04:46:05;169.93;;;154.45;;
43114;SDS011;28727;50.068;14.452;2023-07-30T04:48:41;174.25;;;158.32;;
43114;SDS011;28727;50.068;14.452;2023-07-30T04:51:18;167.77;;;152.57;;
43114;SDS011;28727;50.068;14.452;2023-07-30T04:53:54;173.40;;;157.70;;
43114;SDS011;28727;50.068;14.452;2023-07-30T04:56:25;174.27;;;158.45;;
43114;SDS011;28727;50.068;14.452;2023-07-30T04:58:59;169.80;;;154.15;;
43114;SDS011;28727;50.068;14.452;2023-07-30T05:01:31;164.05;;;149.32;;
43114;SDS011;28727;50.068;14.452;2023-07-30T05:04:03;170.98;;;155.43;;
43114;SDS011;28727;50.068;14.452;2023-07-30T05:06:35;177.32;;;161.38;;
43114;SDS011;28727;50.068;14.452;2023-07-30T05:09:06;166.65;;;151.45;;
43114;SDS011;28727;50.068;14.452;2023-07-30T05:11:38;168.40;;;153.20;;
43114;SDS011;28727;50.068;14.452;2023-07-30T05:16:45;178.73;;;162.75;;
43114;SDS011;28727;50.068;14.452;2023-07-30T05:19:16;170.35;;;154.57;;
43114;SDS011;28727;50.068;14.452;2023-07-30T05:21:48;169.75;;;154.45;;
43114;SDS011;28727;50.068;14.452;2023-07-30T05:24:20;170.60;;;155.13;;
43114;SDS011;28727;50.068;14.452;2023-07-30T05:26:54;176.43;;;159.68;;
43114;SDS011;28727;50.068;14.452;2023-07-30T05:29:26;172.20;;;156.63;;
43114;SDS011;28727;50.068;14.452;2023-07-30T05:31:58;182.80;;;165.68;;
43114;SDS011;28727;50.068;14.452;2023-07-30T05:34:30;186.45;;;168.80;;
43114;SDS011;28727;50.068;14.452;2023-07-30T05:37:03;188.32;;;170.77;;
43114;SDS011;28727;50.068;14.452;2023-07-30T05:39:35;193.18;;;175.02;;
43114;SDS011;28727;50.068;14.452;2023-07-30T05:42:07;184.93;;;168.07;;
43114;SDS011;28727;50.068;14.452;2023-07-30T05:44:39;193.32;;;175.35;;
43114;SDS011;28727;50.068;14.452;2023-07-30T05:47:13;189.40;;;171.85;;
43114;SDS011;28727;50.068;14.452;2023-07-30T05:49:45;185.10;;;168.07;;
43114;SDS011;28727;50.068;14.452;2023-07-30T05:52:17;192.57;;;175.00;;
43114;SDS011;28727;50.068;14.452;2023-07-30T05:54:53;199.30;;;180.98;;
43114;SDS011;28727;50.068;14.452;2023-07-30T05:57:28;185.60;;;168.30;;
43114;SDS011;28727;50.068;14.452;2023-07-30T06:00:02;186.18;;;168.95;;
43114;SDS011;28727;50.068;14.452;2023-07-30T06:02:42;192.27;;;174.38;;
43114;SDS011;28727;50.068;14.452;2023-07-30T06:05:13;185.95;;;168.27;;
43114;SDS011;28727;50.068;14.452;2023-07-30T06:07:45;191.40;;;173.77;;
43114;SDS011;28727;50.068;14.452;2023-07-30T06:10:20;186.02;;;168.50;;
43114;SDS011;28727;50.068;14.452;2023-07-30T06:12:52;198.32;;;180.23;;
43114;SDS011;28727;50.068;14.452;2023-07-30T06:15:23;188.52;;;171.05;;
43114;SDS011;28727;50.068;14.452;2023-07-30T06:17:55;183.07;;;166.02;;
43114;SDS011;28727;50.068;14.452;2023-07-30T06:20:29;191.73;;;174.05;;
43114;SDS011;28727;50.068;14.452;2023-07-30T06:23:01;192.73;;;174.77;;
43114;SDS011;28727;50.068;14.452;2023-07-30T06:25:37;195.85;;;177.95;;
43114;SDS011;28727;50.068;14.452;2023-07-30T06:28:14;188.48;;;170.93;;
43114;SDS011;28727;50.068;14.452;2023-07-30T06:30:45;193.75;;;175.80;;
43114;SDS011;28727;50.068;14.452;2023-07-30T06:33:17;194.40;;;176.18;;
43114;SDS011;28727;50.068;14.452;2023-07-30T06:35:52;188.55;;;170.82;;
43114;SDS011;28727;50.068;14.452;2023-07-30T06:38:24;195.77;;;177.70;;
43114;SDS011;28727;50.068;14.452;2023-07-30T06:40:56;202.60;;;183.85;;
43114;SDS011;28727;50.068;14.452;2023-07-30T06:43:29;199.23;;;180.70;;
43114;SDS011;28727;50.068;14.452;2023-07-30T06:46:02;194.75;;;176.85;;
43114;SDS011;28727;50.068;14.452;2023-07-30T06:48:35;187.15;;;169.77;;
43114;SDS011;28727;50.068;14.452;2023-07-30T06:51:07;186.73;;;169.13;;
43114;SDS011;28727;50.068;14.452;2023-07-30T06:53:40;188.25;;;170.85;;
43114;SDS011;28727;50.068;14.452;2023-07-30T06:56:12;183.95;;;166.85;;
43114;SDS011;28727;50.068;14.452;2023-07-30T06:58:44;192.00;;;174.48;;
43114;SDS011;28727;50.068;14.452;2023-07-30T07:01:19;186.60;;;169.20;;
43114;SDS011;28727;50.068;14.452;2023-07-30T07:03:50;188.57;;;171.00;;
43114;SDS011;28727;50.068;14.452;2023-07-30T07:06:22;182.07;;;165.10;;
43114;SDS011;28727;50.068;14.452;2023-07-30T07:08:54;178.75;;;162.13;;
43114;SDS011;28727;50.068;14.452;2023-07-30T07:14:01;187.15;;;169.98;;
43114;SDS011;28727;50.068;14.452;2023-07-30T07:16:36;184.68;;;167.32;;
43114;SDS011;28727;50.068;14.452;2023-07-30T07:19:08;179.38;;;162.45;;
43114;SDS011;28727;50.068;14.452;2023-07-30T07:21:40;179.63;;;162.70;;
43114;SDS011;28727;50.068;14.452;2023-07-30T07:24:12;190.32;;;171.57;;
43114;SDS011;28727;50.068;14.452;2023-07-30T07:26:43;198.40;;;179.80;;
43114;SDS011;28727;50.068;14.452;2023-07-30T07:29:16;193.60;;;175.77;;
43114;SDS011;28727;50.068;14.452;2023-07-30T07:31:51;188.63;;;170.95;;
43114;SDS011;28727;50.068;14.452;2023-07-30T07:34:22;190.57;;;172.93;;
43114;SDS011;28727;50.068;14.452;2023-07-30T07:36:54;192.50;;;174.57;;
43114;SDS011;28727;50.068;14.452;2023-07-30T07:39:32;187.15;;;169.80;;
43114;SDS011;28727;50.068;14.452;2023-07-30T07:42:05;201.45;;;182.30;;
43114;SDS011;28727;50.068;14.452;2023-07-30T07:44:37;183.98;;;167.00;;
43114;SDS011;28727;50.068;14.452;2023-07-30T07:47:10;182.60;;;165.73;;
43114;SDS011;28727;50.068;14.452;2023-07-30T07:49:42;179.52;;;162.98;;
43114;SDS011;28727;50.068;14.452;2023-07-30T07:52:14;194.25;;;176.23;;
43114;SDS011;28727;50.068;14.452;2023-07-30T07:54:46;180.93;;;164.52;;
43114;SDS011;28727;50.068;14.452;2023-07-30T07:57:18;180.40;;;163.55;;
43114;SDS011;28727;50.068;14.452;2023-07-30T07:59:51;179.73;;;163.40;;
43114;SDS011;28727;50.068;14.452;2023-07-30T08:02:25;178.43;;;162.02;;
43114;SDS011;28727;50.068;14.452;2023-07-30T08:04:57;178.43;;;162.20;;
43114;SDS011;28727;50.068;14.452;2023-07-30T08:07:30;169.80;;;154.50;;
43114;SDS011;28727;50.068;14.452;2023-07-30T08:10:01;169.20;;;153.88;;
43114;SDS011;28727;50.068;14.452;2023-07-30T08:12:33;169.15;;;153.63;;
43114;SDS011;28727;50.068;14.452;2023-07-30T08:15:09;165.77;;;150.63;;
43114;SDS011;28727;50.068;14.452;2023-07-30T08:17:44;177.23;;;161.20;;
43114;SDS011;28727;50.068;14.452;2023-07-30T08:20:16;172.15;;;156.50;;
43114;SDS011;28727;50.068;14.452;2023-07-30T08:22:47;167.88;;;152.18;;
43114;SDS011;28727;50.068;14.452;2023-07-30T08:25:19;169.52;;;154.05;;
43114;SDS011;28727;50.068;14.452;2023-07-30T08:27:51;177.18;;;160.77;;
43114;SDS011;28727;50.068;14.452;2023-07-30T08:30:26;175.02;;;158.55;;
43114;SDS011;28727;50.068;14.452;2023-07-30T08:33:01;172.48;;;156.43;;
43114;SDS011;28727;50.068;14.452;2023-07-30T08:35:33;169.70;;;154.35;;
43114;SDS011;28727;50.068;14.452;2023-07-30T08:38:05;175.98;;;159.88;;
43114;SDS011;28727;50.068;14.452;2023-07-30T08:40:37;167.32;;;151.98;;
43114;SDS011;28727;50.068;14.452;2023-07-30T08:43:10;164.55;;;149.60;;
43114;SDS011;28727;50.068;14.452;2023-07-30T08:45:41;173.93;;;158.00;;
43114;SDS011;28727;50.068;14.452;2023-07-30T08:48:16;165.82;;;150.68;;
43114;SDS011;28727;50.068;14.452;2023-07-30T08:50:49;167.48;;;152.13;;
43114;SDS011;28727;50.068;14.452;2023-07-30T08:53:21;168.00;;;152.98;;
43114;SDS011;28727;50.068;14.452;2023-07-30T08:55:59;170.90;;;155.48;;
43114;SDS011;28727;50.068;14.452;2023-07-30T08:58:33;168.75;;;153.15;;
43114;SDS011;28727;50.068;14.452;2023-07-30T09:01:09;176.65;;;160.52;;
43114;SDS011;28727;50.068;14.452;2023-07-30T09:03:43;175.90;;;159.65;;
43114;SDS011;28727;50.068;14.452;2023-07-30T09:06:15;172.00;;;156.00;;
43114;SDS011;28727;50.068;14.452;2023-07-30T09:08:47;167.50;;;152.25;;
43114;SDS011;28727;50.068;14.452;2023-07-30T09:11:20;171.45;;;155.85;;
43114;SDS011;28727;50.068;14.452;2023-07-30T09:14:00;171.38;;;155.65;;
43114;SDS011;28727;50.068;14.452;2023-07-30T09:16:33;183.90;;;167.23;;
43114;SDS011;28727;50.068;14.452;2023-07-30T09:19:05;184.80;;;168.10;;
43114;SDS011;28727;50.068;14.452;2023-07-30T09:21:39;184.60;;;167.82;;
43114;SDS011;28727;50.068;14.452;2023-07-30T09:24:11;183.77;;;166.98;;
43114;SDS011;28727;50.068;14.452;2023-07-30T09:26:45;187.45;;;170.27;;
43114;SDS011;28727;50.068;14.452;2023-07-30T09:29:17;192.23;;;174.35;;
43114;SDS011;28727;50.068;14.452;2023-07-30T09:31:50;188.00;;;170.32;;
43114;SDS011;28727;50.068;14.452;2023-07-30T09:34:26;192.93;;;174.85;;
43114;SDS011;28727;50.068;14.452;2023-07-30T09:36:58;199.70;;;181.20;;
43114;SDS011;28727;50.068;14.452;2023-07-30T09:39:29;204.75;;;185.70;;
43114;SDS011;28727;50.068;14.452;2023-07-30T09:42:04;212.10;;;191.98;;
43114;SDS011;28727;50.068;14.452;2023-07-30T09:44:38;212.98;;;193.02;;
43114;SDS011;28727;50.068;14.452;2023-07-30T09:47:12;203.05;;;183.93;;
43114;SDS011;28727;50.068;14.452;2023-07-30T09:49:44;208.88;;;189.07;;
43114;SDS011;28727;50.068;14.452;2023-07-30T09:52:19;213.85;;;193.68;;
43114;SDS011;28727;50.068;14.452;2023-07-30T09:54:54;218.00;;;197.25;;
43114;SDS011;28727;50.068;14.452;2023-07-30T09:57:30;218.10;;;197.55;;
43114;SDS011;28727;50.068;14.452;2023-07-30T10:00:02;230.07;;;207.70;;
43114;SDS011;28727;50.068;14.452;2023-07-30T10:02:37;228.13;;;206.45;;
43114;SDS011;28727;50.068;14.452;2023-07-30T10:05:18;236.02;;;213.43;;
43114;SDS011;28727;50.068;14.452;2023-07-30T10:07:53;241.48;;;218.32;;
43114;SDS011;28727;50.068;14.452;2023-07-30T10:10:29;235.05;;;212.48;;
43114;SDS011;28727;50.068;14.452;2023-07-30T10:13:03;238.55;;;215.52;;
43114;SDS011;28727;50.068;14.452;2023-07-30T10:15:38;248.23;;;224.35;;
43114;SDS011;28727;50.068;14.452;2023-07-30T10:18:10;241.55;;;218.48;;
43114;SDS011;28727;50.068;14.452;2023-07-30T10:20:45;241.98;;;218.70;;
43114;SDS011;28727;50.068;14.452;2023-07-30T10:23:26;242.63;;;219.30;;
43114;SDS011;28727;50.068;14.452;2023-07-30T10:26:00;240.38;;;217.13;;
43114;SDS011;28727;50.068;14.452;2023-07-30T10:28:42;250.40;;;225.32;;
43114;SDS011;28727;50.068;14.452;2023-07-30T10:31:15;252.88;;;228.10;;
43114;SDS011;28727;50.068;14.452;2023-07-30T10:33:54;258.77;;;233.50;;
43114;SDS011;28727;50.068;14.452;2023-07-30T10:36:32;256.80;;;231.55;;
43114;SDS011;28727;50.068;14.452;2023-07-30T10:39:12;252.18;;;227.13;;
43114;SDS011;28727;50.068;14.452;2023-07-30T10:42:01;254.10;;;229.00;;
43114;SDS011;28727;50.068;14.452;2023-07-30T10:44:35;254.98;;;230.07;;
43114;SDS011;28727;50.068;14.452;2023-07-30T10:47:06;253.38;;;228.40;;
43114;SDS011;28727;50.068;14.452;2023-07-30T10:49:44;264.45;;;239.07;;
43114;SDS011;28727;50.068;14.452;2023-07-30T10:52:23;257.40;;;232.32;;
43114;SDS011;28727;50.068;14.452;2023-07-30T10:55:02;257.15;;;231.95;;
43114;SDS011;28727;50.068;14.452;2023-07-30T10:57:33;262.08;;;236.27;;
43114;SDS011;28727;50.068;14.452;2023-07-30T11:00:09;254.27;;;229.07;;
43114;SDS011;28727;50.068;14.452;2023-07-30T11:02:41;262.95;;;237.18;;
43114;SDS011;28727;50.068;14.452;2023-07-30T11:05:13;249.02;;;224.80;;
43114;SDS011;28727;50.068;14.452;2023-07-30T11:07:50;249.43;;;224.75;;
43114;SDS011;28727;50.068;14.452;2023-07-30T11:10:25;276.25;;;249.40;;
43114;SDS011;28727;50.068;14.452;2023-07-30T11:12:57;280.45;;;252.52;;
43114;SDS011;28727;50.068;14.452;2023-07-30T11:15:29;295.73;;;266.75;;
43114;SDS011;28727;50.068;14.452;2023-07-30T11:18:01;299.45;;;270.13;;
43114;SDS011;28727;50.068;14.452;2023-07-30T11:20:33;308.65;;;278.45;;
43114;SDS011;28727;50.068;14.452;2023-07-30T11:23:17;309.98;;;280.15;;
43114;SDS011;28727;50.068;14.452;2023-07-30T11:25:54;304.60;;;275.10;;
43114;SDS011;28727;50.068;14.452;2023-07-30T11:28:32;296.60;;;267.17;;
43114;SDS011;28727;50.068;14.452;2023-07-30T11:31:20;297.60;;;268.58;;
43114;SDS011;28727;50.068;14.452;2023-07-30T11:33:53;301.83;;;272.55;;
43114;SDS011;28727;50.068;14.452;2023-07-30T11:36:29;295.42;;;266.58;;
43114;SDS011;28727;50.068;14.452;2023-07-30T11:39:04;314.08;;;283.40;;
43114;SDS011;28727;50.068;14.452;2023-07-30T11:41:37;326.30;;;294.60;;
43114;SDS011;28727;50.068;14.452;2023-07-30T11:44:28;334.07;;;301.77;;
43114;SDS011;28727;50.068;14.452;2023-07-30T11:47:02;317.48;;;286.90;;
43114;SDS011;28727;50.068;14.452;2023-07-30T11:49:36;312.42;;;282.48;;
43114;SDS011;28727;50.068;14.452;2023-07-30T11:52:09;310.35;;;280.55;;
43114;SDS011;28727;50.068;14.452;2023-07-30T11:54:42;297.52;;;268.65;;
43114;SDS011;28727;50.068;14.452;2023-07-30T11:57:14;318.35;;;288.02;;
43114;SDS011;28727;50.068;14.452;2023-07-30T11:59:45;298.40;;;269.85;;
43114;SDS011;28727;50.068;14.452;2023-07-30T12:02:19;291.42;;;263.02;;
43114;SDS011;28727;50.068;14.452;2023-07-30T12:04:51;290.70;;;262.23;;
43114;SDS011;28727;50.068;14.452;2023-07-30T12:07:46;282.20;;;254.80;;
43114;SDS011;28727;50.068;14.452;2023-07-30T12:10:21;297.70;;;269.02;;
43114;SDS011;28727;50.068;14.452;2023-07-30T12:12:54;299.55;;;270.88;;
43114;SDS011;28727;50.068;14.452;2023-07-30T12:15:26;302.95;;;273.48;;
43114;SDS011;28727;50.068;14.452;2023-07-30T12:18:03;309.83;;;279.77;;
43114;SDS011;28727;50.068;14.452;2023-07-30T12:20:35;301.35;;;271.92;;
43114;SDS011;28727;50.068;14.452;2023-07-30T12:23:07;303.90;;;274.48;;
43114;SDS011;28727;50.068;14.452;2023-07-30T12:25:39;301.08;;;270.65;;
43114;SDS011;28727;50.068;14.452;2023-07-30T12:28:11;297.17;;;267.70;;
43114;SDS011;28727;50.068;14.452;2023-07-30T12:30:44;304.17;;;275.23;;
43114;SDS011;28727;50.068;14.452;2023-07-30T12:33:15;299.25;;;270.23;;
43114;SDS011;28727;50.068;14.452;2023-07-30T12:35:48;302.25;;;272.88;;
43114;SDS011;28727;50.068;14.452;2023-07-30T12:38:21;288.20;;;260.23;;
43114;SDS011;28727;50.068;14.452;2023-07-30T12:40:53;297.33;;;268.95;;
43114;SDS011;28727;50.068;14.452;2023-07-30T12:43:25;298.50;;;269.83;;
43114;SDS011;28727;50.068;14.452;2023-07-30T12:46:00;295.05;;;266.88;;
43114;SDS011;28727;50.068;14.452;2023-07-30T12:48:32;299.85;;;271.00;;
43114;SDS011;28727;50.068;14.452;2023-07-30T12:51:04;297.05;;;268.75;;
43114;SDS011;28727;50.068;14.452;2023-07-30T12:53:36;286.63;;;259.13;;
43114;SDS011;28727;50.068;14.452;2023-07-30T12:56:08;290.52;;;262.77;;
43114;SDS011;28727;50.068;14.452;2023-07-30T12:58:40;289.02;;;261.77;;
43114;SDS011;28727;50.068;14.452;2023-07-30T13:01:12;281.15;;;253.75;;
43114;SDS011;28727;50.068;14.452;2023-07-30T13:03:44;266.20;;;240.50;;
43114;SDS011;28727;50.068;14.452;2023-07-30T13:06:18;275.40;;;248.95;;
43114;SDS011;28727;50.068;14.452;2023-07-30T13:08:50;257.42;;;232.55;;
43114;SDS011;28727;50.068;14.452;2023-07-30T13:11:21;257.52;;;232.70;;
43114;SDS011;28727;50.068;14.452;2023-07-30T13:13:56;266.45;;;240.98;;
43114;SDS011;28727;50.068;14.452;2023-07-30T13:16:28;276.20;;;249.57;;
43114;SDS011;28727;50.068;14.452;2023-07-30T13:19:02;264.67;;;239.27;;
43114;SDS011;28727;50.068;14.452;2023-07-30T13:21:34;278.42;;;252.10;;
43114;SDS011;28727;50.068;14.452;2023-07-30T13:24:09;259.25;;;234.45;;
43114;SDS011;28727;50.068;14.452;2023-07-30T13:26:40;264.30;;;239.18;;
43114;SDS011;28727;50.068;14.452;2023-07-30T13:29:13;259.38;;;234.65;;
43114;SDS011;28727;50.068;14.452;2023-07-30T13:31:45;264.35;;;239.38;;
43114;SDS011;28727;50.068;14.452;2023-07-30T13:34:16;265.98;;;240.52;;
43114;SDS011;28727;50.068;14.452;2023-07-30T13:36:48;266.08;;;240.52;;
43114;SDS011;28727;50.068;14.452;2023-07-30T13:39:20;282.77;;;255.98;;
43114;SDS011;28727;50.068;14.452;2023-07-30T13:41:52;277.45;;;250.93;;
43114;SDS011;28727;50.068;14.452;2023-07-30T13:44:24;301.85;;;273.25;;
43114;SDS011;28727;50.068;14.452;2023-07-30T13:46:56;299.30;;;270.70;;
43114;SDS011;28727;50.068;14.452;2023-07-30T13:49:27;295.85;;;267.60;;
43114;SDS011;28727;50.068;14.452;2023-07-30T13:51:59;288.52;;;260.88;;
43114;SDS011;28727;50.068;14.452;2023-07-30T13:54:31;300.10;;;271.35;;
43114;SDS011;28727;50.068;14.452;2023-07-30T13:57:05;288.15;;;260.88;;
43114;SDS011;28727;50.068;14.452;2023-07-30T13:59:38;273.73;;;247.43;;
43114;SDS011;28727;50.068;14.452;2023-07-30T14:02:11;280.58;;;253.73;;
43114;SDS011;28727;50.068;14.452;2023-07-30T14:04:43;282.20;;;255.68;;
43114;SDS011;28727;50.068;14.452;2023-07-30T14:07:15;292.33;;;264.55;;
43114;SDS011;28727;50.068;14.452;2023-07-30T14:09:47;290.92;;;263.42;;
43114;SDS011;28727;50.068;14.452;2023-07-30T14:12:19;291.75;;;264.25;;
43114;SDS011;28727;50.068;14.452;2023-07-30T14:14:50;292.98;;;265.15;;
43114;SDS011;28727;50.068;14.452;2023-07-30T14:17:22;283.67;;;256.55;;
43114;SDS011;28727;50.068;14.452;2023-07-30T14:19:54;278.88;;;252.75;;
43114;SDS011;28727;50.068;14.452;2023-07-30T14:22:29;278.67;;;251.90;;
43114;SDS011;28727;50.068;14.452;2023-07-30T14:25:01;287.35;;;259.85;;